Time;durP1;ratioP1;P1;durP2;ratioP2;P2;SDS_P1;SDS_P2;PMS_P1;PMS_P2;Temp;Humidity;BMP_temperature;BMP_pressure;BME280_temperature;BME280_humidity;BME280_pressure;Samples;Min_cycle;Max_cycle;Signal;HPM_P1;HPM_P2
2022/07/24 00:01:31;;;;;;;4.38;4.03;;;16.40;99.90;;;;;;5019067;28;20083;-47
2022/07/24 00:03:59;;;;;;;5.65;5.10;;;16.40;99.90;;;;;;5011440;28;20117;-48
2022/07/24 00:06:25;;;;;;;7.35;4.53;;;16.50;99.90;;;;;;5013437;28;20118;-46
2022/07/24 00:08:50;;;;;;;4.90;4.60;;;16.50;99.90;;;;;;5011309;28;20042;-52
2022/07/24 00:11:17;;;;;;;5.55;5.15;;;16.50;99.90;;;;;;5021023;28;20025;-52
2022/07/24 00:13:43;;;;;;;4.68;4.28;;;16.40;99.90;;;;;;5031172;28;20079;-47
2022/07/24 00:16:08;;;;;;;5.78;5.28;;;16.40;99.90;;;;;;5045180;28;20060;-47
2022/07/24 00:18:34;;;;;;;6.18;5.57;;;16.40;99.90;;;;;;5015352;28;20044;-47
2022/07/24 00:21:00;;;;;;;;;;;16.40;99.90;;;;;;5017978;28;20087;-49
2022/07/24 00:23:27;;;;;;;5.72;5.25;;;16.30;99.90;;;;;;5029826;28;20390;-47
2022/07/24 00:25:53;;;;;;;8.88;6.13;;;16.20;99.90;;;;;;5029451;28;20059;-47
2022/07/24 00:28:19;;;;;;;6.40;5.82;;;16.20;99.90;;;;;;5020170;28;20124;-52
2022/07/24 00:30:45;;;;;;;;;;;16.10;99.90;;;;;;5029219;28;20041;-49
2022/07/24 00:33:10;;;;;;;5.70;5.30;;;16.10;99.90;;;;;;5010806;28;19924;-47
2022/07/24 00:35:36;;;;;;;9.32;5.93;;;16.00;99.90;;;;;;5012229;28;20034;-47
2022/07/24 00:38:03;;;;;;;8.82;5.80;;;15.90;99.90;;;;;;5027904;28;20415;-47
2022/07/24 00:40:29;;;;;;;6.38;5.85;;;15.90;99.90;;;;;;5011270;28;20081;-47
2022/07/24 00:42:56;;;;;;;6.35;5.72;;;15.80;99.90;;;;;;5019685;28;20403;-47
2022/07/24 00:45:22;;;;;;;5.25;4.68;;;15.80;99.90;;;;;;5011010;28;20056;-48
2022/07/24 00:47:47;;;;;;;6.70;5.68;;;15.80;99.90;;;;;;5026168;28;20037;-52
2022/07/24 00:50:13;;;;;;;6.00;5.55;;;15.70;99.90;;;;;;5031178;28;20072;-52
2022/07/24 00:52:39;;;;;;;6.00;5.47;;;15.70;99.90;;;;;;5016074;28;20038;-47
2022/07/24 00:55:05;;;;;;;5.80;5.30;;;15.80;99.90;;;;;;5011308;28;20042;-47
2022/07/24 00:57:31;;;;;;;;;;;15.70;99.90;;;;;;5015862;28;20045;-51
2022/07/24 00:59:57;;;;;;;5.68;5.18;;;15.70;99.90;;;;;;5011054;28;20383;-51
2022/07/24 01:02:23;;;;;;;5.70;5.28;;;15.70;99.90;;;;;;5021776;28;20434;-48
2022/07/24 01:04:50;;;;;;;6.03;4.53;;;15.70;99.90;;;;;;5030612;28;20033;-51
2022/07/24 01:07:16;;;;;;;5.93;5.40;;;15.70;99.90;;;;;;5020666;28;20492;-49
2022/07/24 01:09:43;;;;;;;7.63;5.78;;;15.70;99.90;;;;;;5020964;28;20053;-45
2022/07/24 01:12:08;;;;;;;5.30;4.90;;;15.70;99.90;;;;;;5022356;28;20116;-53
2022/07/24 01:14:34;;;;;;;6.53;5.93;;;15.70;99.90;;;;;;5014960;28;20120;-51
2022/07/24 01:17:00;;;;;;;6.05;5.55;;;15.70;99.90;;;;;;5023162;28;20041;-47
2022/07/24 01:19:26;;;;;;;5.80;5.32;;;15.60;99.90;;;;;;5019411;28;20034;-47
2022/07/24 01:21:53;;;;;;;5.88;5.28;;;15.60;99.90;;;;;;5025504;28;20041;-47
2022/07/24 01:24:20;;;;;;;6.57;6.05;;;15.60;99.90;;;;;;5010295;28;20042;-53
2022/07/24 01:26:46;;;;;;;6.88;6.22;;;15.60;99.90;;;;;;5014085;28;20033;-52
2022/07/24 01:29:12;;;;;;;7.45;6.05;;;15.60;99.90;;;;;;5029453;28;20045;-53
2022/07/24 01:31:37;;;;;;;6.20;5.60;;;15.60;99.90;;;;;;5027805;28;20490;-53
2022/07/24 01:34:04;;;;;;;5.85;5.38;;;15.60;99.90;;;;;;5010487;28;20034;-52
2022/07/24 01:36:30;;;;;;;6.43;5.82;;;15.50;99.90;;;;;;5011095;28;20038;-52
2022/07/24 01:38:55;;;;;;;6.32;5.80;;;15.60;99.90;;;;;;5011024;28;20376;-52
2022/07/24 01:41:21;;;;;;;7.72;6.95;;;15.50;99.90;;;;;;5010403;28;20037;-52
2022/07/24 01:43:47;;;;;;;8.02;6.95;;;15.50;99.90;;;;;;5010112;28;20038;-50
2022/07/24 01:46:12;;;;;;;7.47;6.70;;;15.50;99.90;;;;;;5010082;28;20041;-52
2022/07/24 01:48:40;;;;;;;8.05;6.50;;;15.50;99.90;;;;;;5026150;28;20069;-51
2022/07/24 01:51:06;;;;;;;6.75;6.03;;;15.50;99.90;;;;;;5015680;28;20042;-52
2022/07/24 01:53:31;;;;;;;7.13;6.43;;;15.50;99.90;;;;;;5024420;28;20414;-51
2022/07/24 01:55:57;;;;;;;6.43;5.85;;;15.50;99.90;;;;;;5030417;28;20092;-50
2022/07/24 01:58:23;;;;;;;9.13;6.30;;;15.60;99.90;;;;;;5017924;28;20042;-53
2022/07/24 02:00:49;;;;;;;6.55;5.90;;;15.50;99.90;;;;;;5010372;28;20054;-52
2022/07/24 02:03:14;;;;;;;7.55;6.93;;;15.50;99.90;;;;;;5021532;28;20046;-50
2022/07/24 02:05:40;;;;;;;9.10;6.25;;;15.50;99.90;;;;;;5017224;28;20038;-51
2022/07/24 02:08:06;;;;;;;7.05;6.35;;;15.50;99.90;;;;;;5019443;28;20498;-52
2022/07/24 02:10:32;;;;;;;5.60;5.18;;;15.50;99.90;;;;;;5027979;28;20111;-53
2022/07/24 02:12:58;;;;;;;6.65;6.05;;;15.50;99.90;;;;;;5017515;28;20055;-49
2022/07/24 02:15:24;;;;;;;7.03;6.30;;;15.50;99.90;;;;;;5029794;28;20037;-46
2022/07/24 02:17:51;;;;;;;;;;;15.40;99.90;;;;;;5024370;28;20038;-51
2022/07/24 02:20:16;;;;;;;;;;;15.40;99.90;;;;;;5010299;28;20375;-51
2022/07/24 02:22:42;;;;;;;;;;;15.40;99.90;;;;;;5018985;28;19921;-52
2022/07/24 02:25:08;;;;;;;;;;;15.40;99.90;;;;;;5010288;28;20503;-47
2022/07/24 02:27:34;;;;;;;;;;;15.30;99.90;;;;;;5010709;28;19999;-47
2022/07/24 02:29:59;;;;;;;;;;;15.30;99.90;;;;;;5009277;28;20023;-51
2022/07/24 02:32:25;;;;;;;;;;;15.30;99.90;;;;;;5018503;28;19917;-52
2022/07/24 02:34:50;;;;;;;;;;;15.30;99.90;;;;;;5012910;28;20383;-48
2022/07/24 02:37:16;;;;;;;;;;;15.30;99.90;;;;;;5013859;28;19940;-48
2022/07/24 02:39:41;;;;;;;;;;;15.30;99.90;;;;;;5015285;28;19931;-46
2022/07/24 02:42:07;;;;;;;;;;;15.30;99.90;;;;;;5014074;28;19917;-47
2022/07/24 02:44:32;;;;;;;;;;;15.20;99.90;;;;;;5014213;28;20342;-47
2022/07/24 02:46:58;;;;;;;;;;;15.20;99.90;;;;;;5020248;28;19917;-47
2022/07/24 02:49:23;;;;;;;;;;;15.20;99.90;;;;;;5032169;28;19917;-48
2022/07/24 02:51:49;;;;;;;;;;;15.20;99.90;;;;;;5032684;28;20383;-50
2022/07/24 02:54:14;;;;;;;;;;;15.20;99.90;;;;;;5029812;28;19917;-51
2022/07/24 02:56:40;;;;;;;;;;;15.20;99.90;;;;;;5033455;28;19917;-48
2022/07/24 02:59:05;;;;;;;;;;;15.20;99.90;;;;;;5031317;28;20421;-49
2022/07/24 03:01:31;;;;;;;;;;;15.20;99.90;;;;;;5033754;28;19916;-47
2022/07/24 03:03:56;;;;;;;;;;;15.20;99.90;;;;;;5026151;28;20390;-50
2022/07/24 03:06:22;;;;;;;;;;;15.20;99.90;;;;;;5032990;28;19920;-49
2022/07/24 03:08:48;;;;;;;;;;;15.10;99.90;;;;;;5030618;28;19917;-49
2022/07/24 03:11:13;;;;;;;;;;;15.10;99.90;;;;;;5033134;28;20047;-49
2022/07/24 03:13:39;;;;;;;;;;;15.10;99.90;;;;;;5026769;28;19979;-47
2022/07/24 03:16:04;;;;;;;;;;;15.00;99.90;;;;;;5028224;28;20374;-47
2022/07/24 03:18:30;;;;;;;;;;;15.00;99.90;;;;;;5029554;28;20019;-51
2022/07/24 03:20:55;;;;;;;;;;;14.90;99.90;;;;;;5013355;28;19948;-48
2022/07/24 03:23:21;;;;;;;;;;;14.90;99.90;;;;;;5014205;28;20306;-48
2022/07/24 03:25:46;;;;;;;;;;;15.00;99.90;;;;;;5032061;28;19921;-52
2022/07/24 03:28:12;;;;;;;;;;;14.90;99.90;;;;;;5029366;28;19943;-51
2022/07/24 03:30:37;;;;;;;;;;;14.90;99.90;;;;;;5032373;28;19917;-52
2022/07/24 03:33:03;;;;;;;;;;;14.90;99.90;;;;;;5032614;28;20350;-53
2022/07/24 03:35:28;;;;;;;;;;;14.90;99.90;;;;;;5016486;28;20453;-51
2022/07/24 03:37:54;;;;;;;;;;;14.90;99.90;;;;;;5032788;28;19917;-50
2022/07/24 03:40:19;;;;;;;;;;;14.90;99.90;;;;;;5030708;28;20012;-53
2022/07/24 03:42:45;;;;;;;;;;;14.90;99.90;;;;;;5030884;28;19917;-49
2022/07/24 03:45:10;;;;;;;;;;;14.90;99.90;;;;;;5018469;28;20040;-53
2022/07/24 03:47:36;;;;;;;;;;;14.90;99.90;;;;;;5012816;28;20302;-47
2022/07/24 03:50:02;;;;;;;;;;;14.90;99.90;;;;;;5018974;28;19921;-52
2022/07/24 03:52:27;;;;;;;;;;;15.00;99.90;;;;;;5012689;28;19921;-52
2022/07/24 03:54:54;;;;;;;;;;;15.00;99.90;;;;;;5022251;28;19917;-51
2022/07/24 03:57:20;;;;;;;;;;;15.00;99.90;;;;;;5031465;28;19917;-48
2022/07/24 03:59:46;;;;;;;;;;;15.00;99.90;;;;;;5024049;28;19921;-51
2022/07/24 04:02:11;;;;;;;;;;;15.00;99.90;;;;;;5012808;28;20012;-52
2022/07/24 04:04:37;;;;;;;;;;;15.10;99.90;;;;;;5018206;28;19917;-52
2022/07/24 04:07:02;;;;;;;;;;;15.10;99.90;;;;;;5031664;28;20178;-52
2022/07/24 04:09:28;;;;;;;;;;;15.00;99.90;;;;;;5027324;28;19924;-48
2022/07/24 04:11:53;;;;;;;;;;;15.00;99.90;;;;;;5024763;28;20396;-49
2022/07/24 04:14:19;;;;;;;;;;;15.00;99.90;;;;;;5029083;28;19920;-52
2022/07/24 04:16:44;;;;;;;;;;;15.00;99.90;;;;;;5015991;28;19925;-51
2022/07/24 04:19:10;;;;;;;;;;;15.10;99.90;;;;;;5012659;28;19918;-51
2022/07/24 04:21:35;;;;;;;;;;;15.00;99.90;;;;;;5012916;28;20001;-50
2022/07/24 04:24:01;;;;;;;;;;;15.00;99.90;;;;;;5011951;28;19975;-48
2022/07/24 04:26:26;;;;;;;;;;;15.10;99.90;;;;;;5025318;28;19917;-50
2022/07/24 04:28:52;;;;;;;;;;;15.10;99.90;;;;;;5012340;28;20016;-48
2022/07/24 04:31:17;;;;;;;;;;;15.10;99.90;;;;;;5028684;28;20357;-49
2022/07/24 04:33:43;;;;;;;;;;;15.20;99.90;;;;;;5031479;28;20370;-47
2022/07/24 04:36:09;;;;;;;;;;;15.20;99.90;;;;;;5016503;28;19917;-48
2022/07/24 04:38:34;;;;;;;;;;;15.20;99.90;;;;;;5029619;28;20000;-49
2022/07/24 04:41:00;;;;;;;;;;;15.30;99.90;;;;;;5027754;28;20399;-48
2022/07/24 04:43:26;;;;;;;;;;;15.30;99.90;;;;;;5011475;28;20394;-48
2022/07/24 04:45:51;;;;;;;;;;;15.40;99.90;;;;;;5022950;28;20029;-49
2022/07/24 04:48:17;;;;;;;;;;;15.40;99.90;;;;;;5030228;28;19917;-50
2022/07/24 04:50:42;;;;;;;;;;;15.40;99.90;;;;;;5021416;28;19924;-47
2022/07/24 04:53:08;;;;;;;;;;;15.50;99.90;;;;;;5025073;28;19951;-47
2022/07/24 04:55:33;;;;;;;;;;;15.50;99.90;;;;;;5022877;28;20012;-47
2022/07/24 04:57:59;;;;;;;;;;;15.60;99.90;;;;;;5011735;28;20036;-49
2022/07/24 05:00:24;;;;;;;;;;;15.60;99.90;;;;;;5016777;28;19921;-50
2022/07/24 05:02:50;;;;;;;;;;;15.60;99.90;;;;;;5012496;28;20107;-51
2022/07/24 05:05:15;;;;;;;;;;;15.70;99.90;;;;;;5020664;28;19917;-51
2022/07/24 05:07:41;;;;;;;;;;;15.70;99.90;;;;;;5011523;28;19926;-49
2022/07/24 05:10:06;;;;;;;;;;;15.80;99.90;;;;;;5026732;28;20293;-50
2022/07/24 05:12:32;;;;;;;;;;;15.90;99.90;;;;;;5012268;28;19956;-48
2022/07/24 05:14:58;;;;;;;;;;;16.00;99.90;;;;;;5011792;28;20373;-52
2022/07/24 05:17:23;;;;;;;;;;;16.00;99.90;;;;;;5031079;28;19924;-49
2022/07/24 05:19:49;;;;;;;;;;;16.10;99.90;;;;;;5030605;28;19921;-47
2022/07/24 05:22:14;;;;;;;;;;;16.10;99.90;;;;;;5028968;28;19923;-50
2022/07/24 05:24:40;;;;;;;;;;;16.20;99.90;;;;;;5026954;28;19925;-50
2022/07/24 05:27:05;;;;;;;;;;;16.30;99.90;;;;;;5026143;28;20461;-49
2022/07/24 05:29:31;;;;;;;;;;;16.40;99.90;;;;;;5024297;28;19992;-50
2022/07/24 05:31:56;;;;;;;;;;;16.50;99.90;;;;;;5026244;28;19940;-47
2022/07/24 05:34:22;;;;;;;;;;;16.60;99.90;;;;;;5030482;28;19920;-48
2022/07/24 05:36:47;;;;;;;;;;;16.70;99.90;;;;;;5016741;28;19917;-50
2022/07/24 05:39:13;;;;;;;;;;;16.80;99.90;;;;;;5030572;28;20449;-52
2022/07/24 05:41:38;;;;;;;;;;;17.00;99.90;;;;;;5028515;28;19967;-49
2022/07/24 05:44:04;;;;;;;;;;;17.10;99.90;;;;;;5010733;28;19925;-49
2022/07/24 05:46:29;;;;;;;;;;;17.20;99.90;;;;;;5020598;28;19963;-50
2022/07/24 05:48:55;;;;;;;;;;;17.40;99.90;;;;;;5028984;28;20333;-48
2022/07/24 05:51:20;;;;;;;;;;;17.50;99.90;;;;;;5022448;28;19917;-46
2022/07/24 05:53:46;;;;;;;;;;;17.50;99.90;;;;;;5010588;28;19924;-52
2022/07/24 05:56:11;;;;;;;;;;;17.70;99.90;;;;;;5021663;28;19932;-48
2022/07/24 05:58:37;;;;;;;;;;;17.80;99.90;;;;;;5024341;28;20379;-49
2022/07/24 06:01:02;;;;;;;;;;;17.90;99.90;;;;;;5024405;28;19921;-48
2022/07/24 06:03:28;;;;;;;;;;;18.10;99.90;;;;;;5015972;28;19928;-50
2022/07/24 06:05:53;;;;;;;;;;;18.20;99.90;;;;;;5030812;28;19925;-49
2022/07/24 06:08:19;;;;;;;;;;;18.40;99.90;;;;;;5032828;28;20390;-48
2022/07/24 06:10:44;;;;;;;;;;;18.50;99.90;;;;;;5033029;28;19964;-49
2022/07/24 06:13:10;;;;;;;;;;;18.70;99.90;;;;;;5031550;28;19925;-49
2022/07/24 06:15:35;;;;;;;;;;;18.80;99.90;;;;;;5014438;28;19924;-49
2022/07/24 06:18:01;;;;;;;;;;;19.00;99.90;;;;;;5014738;28;19918;-48
2022/07/24 06:20:26;;;;;;;;;;;19.10;99.90;;;;;;5021640;28;19951;-48
2022/07/24 06:22:52;;;;;;;;;;;19.20;99.90;;;;;;5015106;28;20310;-50
2022/07/24 06:25:18;;;;;;;;;;;19.30;99.90;;;;;;5031632;28;19917;-48
2022/07/24 06:27:45;;;;;;;;;;;19.40;99.90;;;;;;5033744;28;19924;-49
2022/07/24 06:30:15;;;;;;;;;;;19.50;99.90;;;;;;5018318;28;19921;-53
2022/07/24 06:32:40;;;;;;;;;;;19.60;99.90;;;;;;5019898;28;20011;-48
2022/07/24 06:35:06;;;;;;;;;;;19.60;99.90;;;;;;5032602;28;19983;-49
2022/07/24 06:37:31;;;;;;;;;;;19.70;99.90;;;;;;5022340;28;19940;-52
2022/07/24 06:39:57;;;;;;;;;;;19.80;99.90;;;;;;5025871;28;20008;-49
2022/07/24 06:42:22;;;;;;;;;;;19.80;99.90;;;;;;5034986;28;19917;-50
2022/07/24 06:44:48;;;;;;;;;;;19.90;99.90;;;;;;5027432;28;19968;-48
2022/07/24 06:47:13;;;;;;;;;;;20.00;99.90;;;;;;5014616;28;19917;-50
2022/07/24 06:49:39;;;;;;;;;;;20.00;99.90;;;;;;5024021;28;20384;-47
2022/07/24 06:52:04;;;;;;;;;;;20.10;99.90;;;;;;5028706;28;19924;-49
2022/07/24 06:54:30;;;;;;;;;;;20.10;99.90;;;;;;5021585;28;19921;-50
2022/07/24 06:56:55;;;;;;;;;;;20.20;99.90;;;;;;5033629;28;19917;-48
2022/07/24 06:59:21;;;;;;;;;;;20.30;99.90;;;;;;5026479;28;20373;-51
2022/07/24 07:01:46;;;;;;;;;;;20.30;99.90;;;;;;5014126;28;20016;-49
2022/07/24 07:04:12;;;;;;;;;;;20.40;99.90;;;;;;5026553;28;19963;-48
2022/07/24 07:06:37;;;;;;;;;;;20.50;99.90;;;;;;5013426;28;19928;-48
2022/07/24 07:09:03;;;;;;;;;;;20.50;99.90;;;;;;5016249;28;19917;-48
2022/07/24 07:11:28;;;;;;;;;;;20.60;99.90;;;;;;5033127;28;20383;-51
2022/07/24 07:13:54;;;;;;;;;;;20.60;99.90;;;;;;5030901;28;19959;-49
2022/07/24 07:16:19;;;;;;;;;;;20.70;99.90;;;;;;5032760;28;19979;-47
2022/07/24 07:18:45;;;;;;;;;;;20.80;99.90;;;;;;5033285;28;19921;-50
2022/07/24 07:21:10;;;;;;;;;;;20.80;99.90;;;;;;5032846;28;20322;-49
2022/07/24 07:23:35;;;;;;;;;;;20.90;99.90;;;;;;5031224;28;20383;-52
2022/07/24 07:26:01;;;;;;;;;;;21.00;99.90;;;;;;5047684;28;20075;-48
2022/07/24 07:28:26;;;;;;;;;;;21.00;99.90;;;;;;5033171;28;20366;-47
2022/07/24 07:30:52;;;;;;;;;;;21.10;99.90;;;;;;5033113;28;19921;-48
2022/07/24 07:33:17;;;;;;;;;;;21.20;99.90;;;;;;5032217;28;19925;-52
2022/07/24 07:35:43;;;;;;;;;;;21.20;99.90;;;;;;5018468;28;19917;-47
2022/07/24 07:38:08;;;;;;;;;;;21.20;99.90;;;;;;5012435;28;20004;-52
2022/07/24 07:40:34;;;;;;;;;;;21.30;99.90;;;;;;5013608;28;19922;-48
2022/07/24 07:42:59;;;;;;;;;;;21.40;99.90;;;;;;5017498;28;19917;-48
2022/07/24 07:45:25;;;;;;;;;;;21.50;99.90;;;;;;5024065;28;20006;-50
2022/07/24 07:47:50;;;;;;;;;;;21.50;99.90;;;;;;5013072;28;19917;-51
2022/07/24 07:50:16;;;;;;;;;;;21.60;99.90;;;;;;5019451;28;20374;-48
2022/07/24 07:52:41;;;;;;;;;;;21.70;99.90;;;;;;5031372;28;19921;-53
2022/07/24 07:55:07;;;;;;;;;;;21.70;99.90;;;;;;5028927;28;20371;-50
2022/07/24 07:57:33;;;;;;;;;;;21.80;99.90;;;;;;5032546;28;19923;-50
2022/07/24 07:59:58;;;;;;;;;;;21.90;99.90;;;;;;5030219;28;20550;-51
2022/07/24 08:02:24;;;;;;;;;;;22.00;99.90;;;;;;5030798;28;19917;-49
2022/07/24 08:04:49;;;;;;;;;;;22.00;99.90;;;;;;5026933;28;20511;-48
2022/07/24 08:07:15;;;;;;;;;;;22.10;99.90;;;;;;5031563;28;19956;-48
2022/07/24 08:09:41;;;;;;;;;;;22.10;99.90;;;;;;5031427;28;19974;-48
2022/07/24 08:12:07;;;;;;;;;;;22.20;99.90;;;;;;5012234;28;19928;-51
2022/07/24 08:14:32;;;;;;;;;;;22.20;99.90;;;;;;5011876;28;19917;-48
2022/07/24 08:16:58;;;;;;;;;;;22.30;99.90;;;;;;5030306;28;19917;-50
2022/07/24 08:19:23;;;;;;;;;;;22.40;99.90;;;;;;5031492;28;20042;-48
2022/07/24 08:21:49;;;;;;;;;;;22.40;99.90;;;;;;5014195;28;19917;-50
2022/07/24 08:24:20;;;;;;;;;;;22.50;99.90;;;;;;5011857;28;19917;-52
2022/07/24 08:26:49;;;;;;;;;;;22.60;99.90;;;;;;5012071;28;20035;-50
2022/07/24 08:29:15;;;;;;;;;;;22.70;99.90;;;;;;5011244;28;19929;-48
2022/07/24 08:31:40;;;;;;;;;;;22.80;99.90;;;;;;5012486;28;19917;-49
2022/07/24 08:34:06;;;;;;;;;;;22.90;99.90;;;;;;5012394;28;20008;-50
2022/07/24 08:36:31;;;;;;;;;;;22.90;99.60;;;;;;5019781;28;19921;-52
2022/07/24 08:38:57;;;;;;;;;;;23.00;99.20;;;;;;5011898;28;20018;-49
2022/07/24 08:41:22;;;;;;;;;;;23.00;98.40;;;;;;5023062;28;19947;-48
2022/07/24 08:43:48;;;;;;;;;;;23.10;98.30;;;;;;5030595;28;19964;-47
2022/07/24 08:46:14;;;;;;;;;;;23.10;97.70;;;;;;5022685;28;19917;-51
2022/07/24 08:48:42;;;;;;;;;;;23.10;97.30;;;;;;5031432;28;19923;-52
2022/07/24 08:51:08;;;;;;;;;;;23.20;97.40;;;;;;5022669;28;19929;-50
2022/07/24 08:53:33;;;;;;;;;;;23.20;97.00;;;;;;5014329;28;19916;-49
2022/07/24 08:55:59;;;;;;;;;;;23.30;96.70;;;;;;5028729;28;19939;-51
2022/07/24 08:58:24;;;;;;;;;;;23.40;96.70;;;;;;5030704;28;19924;-49
2022/07/24 09:00:50;;;;;;;;;;;23.40;97.30;;;;;;5026409;28;19947;-48
2022/07/24 09:03:15;;;;;;;;;;;23.50;97.00;;;;;;5011116;28;19921;-49
2022/07/24 09:05:54;;;;;;;;;;;23.50;96.00;;;;;;5012761;28;19952;-48
2022/07/24 09:08:20;;;;;;;;;;;23.50;96.10;;;;;;5029068;28;19917;-49
2022/07/24 09:10:59;;;;;;;;;;;23.70;96.60;;;;;;5012682;28;20004;-50
2022/07/24 09:13:26;;;;;;;;;;;23.80;96.30;;;;;;5030504;28;19917;-50
2022/07/24 09:15:52;;;;;;;;;;;23.80;95.90;;;;;;5017025;28;19927;-51
2022/07/24 09:18:31;;;;;;;;;;;23.90;96.30;;;;;;5011538;28;19927;-48
2022/07/24 09:20:57;;;;;;;;;;;24.00;96.60;;;;;;5022337;28;19957;-50
2022/07/24 09:23:23;;;;;;;;;;;24.10;95.30;;;;;;5028149;28;19920;-54
2022/07/24 09:25:50;;;;;;;;;;;24.20;95.80;;;;;;5019528;28;19928;-51
2022/07/24 09:28:15;;;;;;;;;;;24.20;94.70;;;;;;5026231;28;19917;-49
2022/07/24 09:30:42;;;;;;;;;;;24.30;94.60;;;;;;5021609;28;20109;-52
2022/07/24 09:33:14;;;;;;;;;;;24.30;94.90;;;;;;5010794;28;19969;-52
2022/07/24 09:35:39;;;;;;;;;;;24.40;95.20;;;;;;5018400;28;19916;-54
2022/07/24 09:38:12;;;;;;;;;;;24.40;94.40;;;;;;5028912;28;20374;-54
2022/07/24 09:40:38;;;;;;;;;;;24.40;94.60;;;;;;5022928;28;19922;-55
2022/07/24 09:43:22;;;;;;;;;;;24.50;93.50;;;;;;5010453;28;19924;-53
2022/07/24 09:45:51;;;;;;;;;;;24.50;93.70;;;;;;5032629;28;19959;-54
2022/07/24 09:48:18;;;;;;;;;;;24.50;94.10;;;;;;5029534;28;19917;-53
2022/07/24 09:50:50;;;;;;;;;;;24.60;92.60;;;;;;5016242;28;19952;-54
2022/07/24 09:53:17;;;;;;;;;;;24.60;93.00;;;;;;5029412;28;19916;-53
2022/07/24 09:55:43;;;;;;;;;;;24.70;94.60;;;;;;5023642;28;20529;-54
2022/07/24 09:58:17;;;;;;;;;;;24.80;93.40;;;;;;5010807;28;19917;-54
2022/07/24 10:00:43;;;;;;;;;;;24.90;93.80;;;;;;5010663;28;19921;-54
2022/07/24 10:03:13;;;;;;;;;;;25.00;93.70;;;;;;5010694;28;20290;-53
2022/07/24 10:05:42;;;;;;;;;;;25.10;92.40;;;;;;5011556;28;19996;-53
2022/07/24 10:08:09;;;;;;;;;;;25.10;92.20;;;;;;5010201;28;20028;-49
2022/07/24 10:10:35;;;;;;;;;;;25.10;92.00;;;;;;5011374;28;19932;-52
2022/07/24 10:13:01;;;;;;;;;;;25.10;91.40;;;;;;5010319;28;19917;-52
2022/07/24 10:15:29;;;;;;;;;;;25.20;91.20;;;;;;5025074;28;19925;-53
2022/07/24 10:17:54;;;;;;;;;;;25.20;91.30;;;;;;5014046;28;19928;-54
2022/07/24 10:20:30;;;;;;;;;;;25.20;91.20;;;;;;5010496;28;20332;-51
2022/07/24 10:23:01;;;;;;;;;;;25.30;91.90;;;;;;5030190;28;20337;-54
2022/07/24 10:25:27;;;;;;;;;;;25.40;91.40;;;;;;5030012;28;19917;-51
2022/07/24 10:27:54;;;;;;;;;;;25.50;90.70;;;;;;5024677;28;20007;-53
2022/07/24 10:30:20;;;;;;;;;;;25.50;91.60;;;;;;5029723;28;19939;-55
2022/07/24 10:32:46;;;;;;;;;;;25.60;90.80;;;;;;5012070;28;19917;-53
2022/07/24 10:35:21;;;;;;;;;;;25.60;88.50;;;;;;5008794;28;19928;-49
2022/07/24 10:38:00;;;;;;;;;;;25.60;89.90;;;;;;5014789;28;19995;-53
2022/07/24 10:40:42;;;;;;;;;;;25.70;89.80;;;;;;5029612;28;19954;-52
2022/07/24 10:43:16;;;;;;;;;;;25.70;88.40;;;;;;5010418;28;19917;-53
2022/07/24 10:45:54;;;;;;;;;;;25.70;87.20;;;;;;5009614;28;20035;-49
2022/07/24 10:48:19;;;;;;;;;;;25.70;87.50;;;;;;5010695;28;19971;-54
2022/07/24 10:50:57;;;;;;;;;;;25.60;87.60;;;;;;5010199;28;19917;-51
2022/07/24 10:53:23;;;;;;;;;;;25.70;88.60;;;;;;5021770;28;20020;-53
2022/07/24 10:55:48;;;;;;;;;;;25.70;86.00;;;;;;5033468;28;20026;-50
2022/07/24 10:58:15;;;;;;;;;;;25.80;88.80;;;;;;5030252;28;19921;-49
2022/07/24 11:00:48;;;;;;;;;;;25.90;87.50;;;;;;5033432;28;19921;-50
2022/07/24 11:03:21;;;;;;;;;;;26.00;88.70;;;;;;5014494;28;20350;-55
2022/07/24 11:06:06;;;;;;;;;;;26.00;86.80;;;;;;5025108;28;20024;-54
2022/07/24 11:08:51;;;;;;;;;;;26.00;87.10;;;;;;5014619;28;19917;-54
2022/07/24 11:11:19;;;;;;;;;;;26.00;87.70;;;;;;5014791;28;19961;-54
2022/07/24 11:13:46;;;;;;;;;;;26.10;89.20;;;;;;5020638;28;19971;-53
2022/07/24 11:16:14;;;;;;;;;;;26.20;87.20;;;;;;5013617;28;19960;-51
2022/07/24 11:18:51;;;;;;;;;;;26.40;88.40;;;;;;5013716;28;19921;-51
2022/07/24 11:21:29;;;;;;;;;;;26.40;87.70;;;;;;5029166;28;19921;-54
2022/07/24 11:24:13;;;;;;;;;;;26.60;90.00;;;;;;5032707;28;20007;-54
2022/07/24 11:26:40;;;;;;;;;;;26.70;85.80;;;;;;5016829;28;19921;-54
2022/07/24 11:29:15;;;;;;;;;;;26.60;85.40;;;;;;5013283;28;19943;-51
2022/07/24 11:31:42;;;;;;;;;;;26.50;84.20;;;;;;5014800;28;19917;-53
2022/07/24 11:34:09;;;;;;;;;;;26.40;83.10;;;;;;5012965;28;19979;-51
2022/07/24 11:36:35;;;;;;;;;;;26.40;84.60;;;;;;5015314;28;19944;-52
2022/07/24 11:39:01;;;;;;;;;;;26.30;84.70;;;;;;5013293;28;20004;-54
2022/07/24 11:41:27;;;;;;;;;;;26.40;85.50;;;;;;5014304;28;19925;-48
2022/07/24 11:43:53;;;;;;;;;;;26.50;85.50;;;;;;5012578;28;19917;-51
2022/07/24 11:46:33;;;;;;;;;;;26.70;85.00;;;;;;5023962;28;20668;-50
2022/07/24 11:49:05;;;;;;;;;;;26.70;84.30;;;;;;5021962;28;20007;-54
2022/07/24 11:51:31;;;;;;;;;;;26.90;85.70;;;;;;5012901;28;19917;-53
2022/07/24 11:53:57;;;;;;;;;;;27.00;84.70;;;;;;5012208;28;20028;-52
2022/07/24 11:56:22;;;;;;;;;;;27.10;88.60;;;;;;5022059;28;19923;-53
2022/07/24 11:58:48;;;;;;;;;;;27.20;85.70;;;;;;5032299;28;20306;-50
2022/07/24 12:01:20;;;;;;;;;;;27.10;84.40;;;;;;5018767;28;20326;-53
2022/07/24 12:03:52;;;;;;;;;;;27.10;82.80;;;;;;5022410;28;19917;-52
2022/07/24 12:06:18;;;;;;;;;;;27.10;84.90;;;;;;5023456;28;19964;-50
2022/07/24 12:08:43;;;;;;;;;;;27.10;83.00;;;;;;5012211;28;20363;-53
2022/07/24 12:11:10;;;;;;;;;;;27.20;85.20;;;;;;5013816;28;19921;-52
2022/07/24 12:13:41;;;;;;;;;;;27.20;82.70;;;;;;5012092;28;20012;-52
2022/07/24 12:16:06;;;;;;;;;;;27.20;81.60;;;;;;5020128;28;20387;-52
2022/07/24 12:18:32;;;;;;;;;;;27.20;83.40;;;;;;5012376;28;20012;-49
2022/07/24 12:21:01;;;;;;;;;;;27.30;82.20;;;;;;5013881;28;19921;-50
2022/07/24 12:23:28;;;;;;;;;;;27.30;82.10;;;;;;5031008;28;19921;-51
2022/07/24 12:25:54;;;;;;;;;;;27.30;84.00;;;;;;5029438;28;19921;-54
2022/07/24 12:28:20;;;;;;;;;;;27.40;84.60;;;;;;5032118;28;20403;-54
2022/07/24 12:30:54;;;;;;;;;;;27.40;81.00;;;;;;5030843;28;19923;-54
2022/07/24 12:33:21;;;;;;;;;;;27.40;83.90;;;;;;5014244;28;19963;-50
2022/07/24 12:35:53;;;;;;;;;;;27.40;82.10;;;;;;5011674;28;19917;-53
2022/07/24 12:38:25;;;;;;;;;;;27.40;81.60;;;;;;5031482;28;19921;-53
2022/07/24 12:40:50;;;;;;;;;;;27.50;86.40;;;;;;5031067;28;19921;-53
2022/07/24 12:43:16;;;;;;;;;;;27.50;82.30;;;;;;5021609;28;19963;-49
2022/07/24 12:45:42;;;;;;;;;;;27.60;81.90;;;;;;5031455;28;19920;-49
2022/07/24 12:48:09;;;;;;;;;;;27.60;80.80;;;;;;5012764;28;19952;-50
2022/07/24 12:50:35;;;;;;;;;;;27.60;82.00;;;;;;5023047;28;19917;-53
2022/07/24 12:53:05;;;;;;;;;;;27.70;82.40;;;;;;5017377;28;20428;-53
2022/07/24 12:55:31;;;;;;;;;;;27.70;78.60;;;;;;5020224;28;20425;-54
2022/07/24 12:58:01;;;;;;;;;;;27.70;80.60;;;;;;5014057;28;19917;-51
2022/07/24 13:00:26;;;;;;;;;;;27.70;81.50;;;;;;5011557;28;20051;-51
2022/07/24 13:02:52;;;;;;;;;;;27.70;79.20;;;;;;5012305;28;20008;-51
2022/07/24 13:05:35;;;;;;;;;;;27.70;82.60;;;;;;5011153;28;19917;-54
2022/07/24 13:08:01;;;;;;;;;;;27.70;78.80;;;;;;5025801;28;19917;-54
2022/07/24 13:10:26;;;;;;;;;;;27.80;79.00;;;;;;5030859;28;19928;-49
2022/07/24 13:12:52;;;;;;;;;;;27.80;78.40;;;;;;5025032;28;20436;-51
2022/07/24 13:15:18;;;;;;;;;;;27.80;79.00;;;;;;5026038;28;19924;-52
2022/07/24 13:17:44;;;;;;;;;;;27.80;78.70;;;;;;5030399;28;19917;-50
2022/07/24 13:20:09;;;;;;;;;;;27.80;77.60;;;;;;5029812;28;19956;-52
2022/07/24 13:22:35;;;;;;;;;;;27.80;78.30;;;;;;5021569;28;19924;-49
2022/07/24 13:25:00;;;;;;;;;;;27.80;81.20;;;;;;5010752;28;19921;-50
2022/07/24 13:27:26;;;;;;;;;;;27.80;78.70;;;;;;5012236;28;20299;-51
2022/07/24 13:29:51;;;;;;;;;;;27.80;78.40;;;;;;5011774;28;19921;-54
2022/07/24 13:32:17;;;;;;;;;;;27.80;77.10;;;;;;5015583;28;19924;-51
2022/07/24 13:34:42;;;;;;;;;;;27.80;76.20;;;;;;5029684;28;19961;-51
2022/07/24 13:37:08;;;;;;;;;;;27.90;78.40;;;;;;5026382;28;19917;-54
2022/07/24 13:39:35;;;;;;;;;;;27.90;78.00;;;;;;5019132;28;20322;-52
2022/07/24 13:42:01;;;;;;;;;;;27.90;77.80;;;;;;5027878;28;20401;-49
2022/07/24 13:44:26;;;;;;;;;;;27.90;78.30;;;;;;5010165;28;19921;-51
2022/07/24 13:46:52;;;;;;;;;;;28.00;78.50;;;;;;5010377;28;20417;-52
2022/07/24 13:49:17;;;;;;;;;;;28.00;77.60;;;;;;5024173;28;19917;-49
2022/07/24 13:51:43;;;;;;;;;;;28.10;76.90;;;;;;5020762;28;19924;-49
2022/07/24 13:54:09;;;;;;;;;;;28.00;77.70;;;;;;5010901;28;19918;-50
2022/07/24 13:56:34;;;;;;;;;;;28.00;76.80;;;;;;5022989;28;19924;-50
2022/07/24 13:59:00;;;;;;;;;;;28.00;76.60;;;;;;5015956;28;19917;-49